createdAt,value
2023-05-13T00:00:06.728Z,102372.69
2023-05-13T00:02:11.894Z,102366.47
2023-05-13T00:04:19.971Z,102372.59
2023-05-13T00:06:27.629Z,102374.41
2023-05-13T00:08:33.104Z,102369.19
2023-05-13T00:10:39.160Z,102372.59
2023-05-13T00:12:44.196Z,102364.75
2023-05-13T00:14:49.180Z,102370.09
2023-05-13T00:16:54.097Z,102362.94
2023-05-13T00:19:01.786Z,102364.75
2023-05-13T00:21:07.098Z,102369.84
2023-05-13T00:23:14.810Z,102359.13
2023-05-13T00:25:21.838Z,102363.44
2023-05-13T00:27:26.757Z,102363.66
2023-05-13T00:29:31.700Z,102367.78
2023-05-13T00:31:36.900Z,102362.56
2023-05-13T00:33:41.822Z,102365.16
2023-05-13T00:35:46.808Z,102367.88
2023-05-13T00:37:52.353Z,102371.28
2023-05-13T00:40:00.609Z,102365.31
2023-05-13T00:42:06.512Z,102357.91
2023-05-13T00:44:13.890Z,102365.75
2023-05-13T00:46:19.727Z,102370.31
2023-05-13T00:48:26.952Z,102370.25
2023-05-13T00:50:32.068Z,102370.31
2023-05-13T00:52:37.845Z,102367.88
2023-05-13T00:54:42.734Z,102372.13
2023-05-13T00:56:54.940Z,102366.13
2023-05-13T00:59:00.000Z,102368.06
2023-05-13T01:01:14.790Z,102362.72
2023-05-13T01:03:27.916Z,102356.34
2023-05-13T01:05:41.670Z,102358.03
2023-05-13T01:07:53.587Z,102359.84
2023-05-13T01:10:05.324Z,102357.28
2023-05-13T01:12:20.649Z,102364.44
2023-05-13T01:14:35.386Z,102362.22
2023-05-13T01:16:46.657Z,102360.53
2023-05-13T01:18:56.183Z,102364.09
2023-05-13T01:21:04.145Z,102357.22
2023-05-13T01:23:11.815Z,102358.25
2023-05-13T01:25:16.755Z,102358.16
2023-05-13T01:27:23.810Z,102355.28
2023-05-13T01:29:31.509Z,102354.75
2023-05-13T01:31:37.010Z,102360.03
2023-05-13T01:33:43.672Z,102363.94
2023-05-13T01:35:50.102Z,102362.97
2023-05-13T01:37:56.055Z,102355.09
2023-05-13T01:40:14.288Z,102364.09
2023-05-13T01:42:26.556Z,102359.81
2023-05-13T01:44:31.651Z,102361.75
2023-05-13T01:46:36.680Z,102353.28
2023-05-13T01:48:41.696Z,102358.72
2023-05-13T01:50:46.896Z,102357.97
2023-05-13T01:52:51.747Z,102361.56
2023-05-13T01:54:56.967Z,102368.28
2023-05-13T01:57:04.616Z,102367.50
2023-05-13T01:59:09.483Z,102367.63
2023-05-13T02:01:14.517Z,102366.28
2023-05-13T02:03:19.636Z,102367.50
2023-05-13T02:05:25.238Z,102365.94
2023-05-13T02:07:30.279Z,102374.84
2023-05-13T02:09:35.196Z,102361.81
2023-05-13T02:11:40.068Z,102368.16
2023-05-13T02:13:48.586Z,102369.94
2023-05-13T02:15:53.711Z,102369.16
2023-05-13T02:17:58.970Z,102370.66
2023-05-13T02:20:04.689Z,102368.13
2023-05-13T02:22:09.676Z,102375.41
2023-05-13T02:24:14.671Z,102376.22
2023-05-13T02:26:19.552Z,102372.97
2023-05-13T02:28:26.736Z,102372.09
2023-05-13T02:30:34.671Z,102367.84
2023-05-13T02:32:42.995Z,102367.09
2023-05-13T02:34:47.975Z,102373.28
2023-05-13T02:36:52.924Z,102371.47
2023-05-13T02:38:57.768Z,102373.59
2023-05-13T02:41:03.184Z,102373.75
2023-05-13T02:43:08.244Z,102379.19
2023-05-13T02:45:14.271Z,102379.38
2023-05-13T02:47:23.018Z,102378.50
2023-05-13T02:49:27.878Z,102375.81
2023-05-13T02:51:35.661Z,102380.22
2023-05-13T02:53:42.766Z,102376.81
2023-05-13T02:55:50.284Z,102379.50
2023-05-13T02:57:57.131Z,102379.56
2023-05-13T03:00:02.432Z,102382.16
2023-05-13T03:02:07.637Z,102382.88
2023-05-13T03:04:15.324Z,102375.94
2023-05-13T03:06:20.314Z,102375.88
2023-05-13T03:08:25.464Z,102375.06
2023-05-13T03:10:31.305Z,102369.84
2023-05-13T03:12:36.705Z,102367.38
2023-05-13T03:14:43.163Z,102369.16
2023-05-13T03:16:48.571Z,102374.44
2023-05-13T03:18:53.501Z,102365.66
2023-05-13T03:21:01.616Z,102369.16
2023-05-13T03:23:06.928Z,102376.22
2023-05-13T03:25:12.143Z,102380.56
2023-05-13T03:27:17.695Z,102377.06
2023-05-13T03:29:23.006Z,102379.72
2023-05-13T03:31:32.420Z,102383.28
2023-05-13T03:33:38.036Z,102372.84
2023-05-13T03:35:42.999Z,102380.63
2023-05-13T03:37:51.268Z,102384.19
2023-05-13T03:39:56.443Z,102382.59
2023-05-13T03:42:01.766Z,102381.03
2023-05-13T03:44:06.818Z,102382.75
2023-05-13T03:46:11.811Z,102379.41
2023-05-13T03:48:16.777Z,102388.22
2023-05-13T03:50:24.220Z,102388.09
2023-05-13T03:52:33.475Z,102385.53
2023-05-13T03:54:41.309Z,102383.78
2023-05-13T03:56:46.458Z,102390.75
2023-05-13T03:58:51.788Z,102395.22
2023-05-13T04:00:57.016Z,102392.72
2023-05-13T04:03:02.059Z,102398.03
2023-05-13T04:05:09.839Z,102397.28
2023-05-13T04:07:14.707Z,102390.31
2023-05-13T04:09:19.704Z,102400.13
2023-05-13T04:11:27.189Z,102393.09
2023-05-13T04:13:32.187Z,102394.78
2023-05-13T04:15:37.607Z,102399.22
2023-05-13T04:17:42.592Z,102400.19
2023-05-13T04:19:47.553Z,102397.50
2023-05-13T04:21:52.417Z,102396.72
2023-05-13T04:23:57.444Z,102400.13
2023-05-13T04:26:02.425Z,102398.38
2023-05-13T04:28:10.217Z,102398.38
2023-05-13T04:30:15.399Z,102403.84
2023-05-13T04:32:22.243Z,102411.72
2023-05-13T04:34:27.317Z,102406.41
2023-05-13T04:36:32.504Z,102409.06
2023-05-13T04:38:38.708Z,102408.25
2023-05-13T04:40:43.638Z,102415.38
2023-05-13T04:42:55.253Z,102410.88
2023-05-13T04:45:03.125Z,102419.59
2023-05-13T04:47:08.622Z,102415.13
2023-05-13T04:49:13.490Z,102415.69
2023-05-13T04:51:19.284Z,102425.41
2023-05-13T04:53:25.843Z,102419.34
2023-05-13T04:55:31.568Z,102411.38
2023-05-13T04:57:39.475Z,102410.41
2023-05-13T04:59:44.369Z,102417.28
2023-05-13T05:01:55.171Z,102411.94
2023-05-13T05:04:02.013Z,102423.19
2023-05-13T05:06:07.076Z,102420.19
2023-05-13T05:08:11.894Z,102416.47
2023-05-13T05:10:19.816Z,102416.81
2023-05-13T05:12:25.240Z,102419.94
2023-05-13T05:14:30.269Z,102421.44
2023-05-13T05:16:35.304Z,102419.38
2023-05-13T05:18:43.854Z,102418.19
2023-05-13T05:20:49.073Z,102426.88
2023-05-13T05:22:55.632Z,102424.75
2023-05-13T05:25:00.530Z,102426.22
2023-05-13T05:27:05.457Z,102425.84
2023-05-13T05:29:10.464Z,102427.94
2023-05-13T05:31:15.624Z,102420.28
2023-05-13T05:33:26.322Z,102422.47
2023-05-13T05:35:37.337Z,102429.69
2023-05-13T05:37:42.288Z,102431.81
2023-05-13T05:39:47.231Z,102433.97
2023-05-13T05:41:52.323Z,102433.59
2023-05-13T05:43:57.285Z,102428.03
2023-05-13T05:46:02.128Z,102432.69
2023-05-13T05:48:07.755Z,102428.53
2023-05-13T05:50:13.406Z,102433.44
2023-05-13T05:52:25.839Z,102436.78
2023-05-13T05:54:31.898Z,102436.91
2023-05-13T05:56:37.220Z,102430.91
2023-05-13T05:58:42.229Z,102432.78
2023-05-13T06:00:47.589Z,102433.25
2023-05-13T06:02:52.605Z,102437.69
2023-05-13T06:04:57.540Z,102435.19
2023-05-13T06:07:02.576Z,102433.94
2023-05-13T06:09:10.268Z,102435.19
2023-05-13T06:11:15.118Z,102432.88
2023-05-13T06:13:20.062Z,102436.44
2023-05-13T06:15:25.260Z,102430.88
2023-05-13T06:17:31.145Z,102428.13
2023-05-13T06:19:36.388Z,102424.75
2023-05-13T06:21:43.310Z,102433.28
2023-05-13T06:23:48.407Z,102430.69
2023-05-13T06:25:59.057Z,102432.59
2023-05-13T06:28:04.277Z,102436.72
2023-05-13T06:30:11.019Z,102435.66
2023-05-13T06:32:16.149Z,102433.53
2023-05-13T06:34:23.857Z,102431.56
2023-05-13T06:36:32.571Z,102434.13
2023-05-13T06:38:38.234Z,102438.31
2023-05-13T06:40:43.530Z,102435.81
2023-05-13T06:42:51.505Z,102431.28
2023-05-13T06:44:56.496Z,102427.06
2023-05-13T06:47:03.119Z,102423.88
2023-05-13T06:49:08.437Z,102432.41
2023-05-13T06:51:13.825Z,102431.41
2023-05-13T06:53:18.863Z,102436.47
2023-05-13T06:55:23.683Z,102440.91
2023-05-13T06:57:41.780Z,102435.06
2023-05-13T06:59:50.507Z,102437.13
2023-05-13T07:01:55.493Z,102437.06
2023-05-13T07:04:01.394Z,102440.25
2023-05-13T07:06:06.260Z,102437.41
2023-05-13T07:08:11.351Z,102433.31
2023-05-13T07:10:16.334Z,102432.66
2023-05-13T07:12:24.988Z,102432.66
2023-05-13T07:14:30.080Z,102435.59
2023-05-13T07:16:40.357Z,102428.13
2023-05-13T07:18:45.637Z,102431.81
2023-05-13T07:20:50.544Z,102429.41
2023-05-13T07:22:55.792Z,102431.28
2023-05-13T07:25:00.722Z,102432.84
2023-05-13T07:27:06.750Z,102428.38
2023-05-13T07:29:11.800Z,102423.41
2023-05-13T07:31:18.645Z,102424.75
2023-05-13T07:33:28.701Z,102423.22
2023-05-13T07:35:34.219Z,102422.63
2023-05-13T07:37:40.038Z,102422.63
2023-05-13T07:39:45.090Z,102422.22
2023-05-13T07:41:50.362Z,102422.63
2023-05-13T07:43:55.175Z,102424.25
2023-05-13T07:46:00.004Z,102424.06
2023-05-13T07:48:05.893Z,102427.63
2023-05-13T07:50:13.858Z,102422.03
2023-05-13T07:52:19.460Z,102432.78
2023-05-13T07:54:26.619Z,102413.16
2023-05-13T07:56:32.377Z,102420.84
2023-05-13T07:58:40.046Z,102423.50
2023-05-13T08:00:45.016Z,102418.84
2023-05-13T08:02:50.023Z,102417.13
2023-05-13T08:04:55.069Z,102416.09
2023-05-13T08:07:04.365Z,102417.97
2023-05-13T08:09:12.388Z,102430.00
2023-05-13T08:11:17.558Z,102425.31
2023-05-13T08:13:22.429Z,102424.38
2023-05-13T08:15:27.419Z,102427.28
2023-05-13T08:17:32.894Z,102426.38
2023-05-13T08:19:38.914Z,102422.88
2023-05-13T08:21:44.010Z,102427.47
2023-05-13T08:23:53.126Z,102414.72
2023-05-13T08:25:58.779Z,102421.44
2023-05-13T08:28:05.146Z,102422.75
2023-05-13T08:30:11.591Z,102421.13
2023-05-13T08:32:16.522Z,102426.09
2023-05-13T08:34:26.657Z,102430.78
2023-05-13T08:36:31.548Z,102425.53
2023-05-13T08:38:38.066Z,102423.34
2023-05-13T08:40:45.977Z,102427.88
2023-05-13T08:42:53.723Z,102425.38
2023-05-13T08:44:59.094Z,102430.59
2023-05-13T08:47:12.547Z,102425.34
2023-05-13T08:49:17.656Z,102426.47
2023-05-13T08:51:22.612Z,102431.84
2023-05-13T08:53:35.214Z,102427.81
2023-05-13T08:55:41.964Z,102422.06
2023-05-13T08:57:49.489Z,102423.03
2023-05-13T08:59:54.394Z,102427.97
2023-05-13T09:02:03.631Z,102426.84
2023-05-13T09:04:11.973Z,102432.78
2023-05-13T09:06:17.420Z,102422.25
2023-05-13T09:08:22.199Z,102431.44
2023-05-13T09:10:27.247Z,102430.28
2023-05-13T09:12:52.956Z,102420.72
2023-05-13T09:14:57.949Z,102423.88
2023-05-13T09:17:05.008Z,102422.94
2023-05-13T09:19:11.633Z,102423.41
2023-05-13T09:21:27.010Z,102422.31
2023-05-13T09:23:32.881Z,102422.06
2023-05-13T09:25:40.003Z,102420.66
2023-05-13T09:27:49.238Z,102432.06
2023-05-13T09:30:05.166Z,102416.97
2023-05-13T09:32:13.011Z,102423.09
2023-05-13T09:34:18.195Z,102420.84
2023-05-13T09:36:23.342Z,102427.56
2023-05-13T09:38:35.779Z,102419.03
2023-05-13T09:40:42.715Z,102424.00
2023-05-13T09:42:49.736Z,102422.59
2023-05-13T09:44:54.883Z,102418.94
2023-05-13T09:47:02.771Z,102425.91
2023-05-13T09:49:08.404Z,102418.28
2023-05-13T09:51:13.454Z,102412.38
2023-05-13T09:53:18.641Z,102420.13
2023-05-13T09:55:25.998Z,102415.41
2023-05-13T09:57:31.472Z,102415.81
2023-05-13T09:59:39.780Z,102416.53
2023-05-13T10:01:45.695Z,102404.78
2023-05-13T10:03:53.374Z,102408.19
2023-05-13T10:06:02.246Z,102406.84
2023-05-13T10:08:11.194Z,102409.91
2023-05-13T10:10:16.505Z,102409.16
2023-05-13T10:12:23.794Z,102408.63
2023-05-13T10:14:32.111Z,102407.09
2023-05-13T10:16:37.625Z,102404.53
2023-05-13T10:18:43.031Z,102405.63
2023-05-13T10:20:55.595Z,102405.88
2023-05-13T10:23:01.046Z,102396.34
2023-05-13T10:25:08.164Z,102398.66
2023-05-13T10:27:15.201Z,102404.44
2023-05-13T10:29:21.356Z,102391.84
2023-05-13T10:31:27.222Z,102401.09
2023-05-13T10:33:34.388Z,102392.72
2023-05-13T10:35:42.928Z,102391.16
2023-05-13T10:38:10.878Z,102393.84
2023-05-13T10:40:52.015Z,102393.94
2023-05-13T10:43:13.392Z,102390.88
2023-05-13T10:45:20.005Z,102393.16
2023-05-13T10:47:25.138Z,102380.03
2023-05-13T10:49:36.914Z,102387.88
2023-05-13T10:51:49.486Z,102384.09
2023-05-13T10:53:59.272Z,102385.19
2023-05-13T10:56:08.113Z,102385.03
2023-05-13T10:58:15.057Z,102381.00
2023-05-13T11:00:21.675Z,102381.75
2023-05-13T11:02:27.228Z,102381.50
2023-05-13T11:04:35.088Z,102373.66
2023-05-13T11:06:41.547Z,102381.88
2023-05-13T11:08:48.403Z,102383.59
2023-05-13T11:11:01.157Z,102373.91
2023-05-13T11:13:25.086Z,102375.22
2023-05-13T11:15:46.786Z,102376.31
2023-05-13T11:17:58.477Z,102378.72
2023-05-13T11:20:03.640Z,102367.59
2023-05-13T11:22:12.674Z,102369.84
2023-05-13T11:24:24.734Z,102373.22
2023-05-13T11:26:49.653Z,102370.50
2023-05-13T11:29:03.566Z,102369.53
2023-05-13T11:31:20.334Z,102372.69
2023-05-13T11:33:28.491Z,102371.78
2023-05-13T11:35:34.851Z,102377.22
2023-05-13T11:37:45.837Z,102370.72
2023-05-13T11:39:50.982Z,102370.56
2023-05-13T11:42:01.895Z,102364.47
2023-05-13T11:44:08.627Z,102367.41
2023-05-13T11:46:14.684Z,102360.44
2023-05-13T11:48:23.971Z,102364.81
2023-05-13T11:50:32.542Z,102360.56
2023-05-13T11:52:37.745Z,102360.91
2023-05-13T11:54:51.489Z,102345.72
2023-05-13T11:57:01.094Z,102358.97
2023-05-13T11:59:18.472Z,102347.66
2023-05-13T12:01:28.460Z,102352.97
2023-05-13T12:03:34.024Z,102348.66
2023-05-13T12:05:38.991Z,102348.91
2023-05-13T12:07:44.789Z,102349.78
2023-05-13T12:09:49.646Z,102347.41
2023-05-13T12:11:55.652Z,102347.94
2023-05-13T12:14:03.702Z,102349.19
2023-05-13T12:16:09.117Z,102341.47
2023-05-13T12:18:15.636Z,102345.16
2023-05-13T12:20:22.283Z,102352.34
2023-05-13T12:22:27.324Z,102344.50
2023-05-13T12:24:37.068Z,102346.34
2023-05-13T12:26:41.989Z,102340.19
2023-05-13T12:28:47.538Z,102345.31
2023-05-13T12:30:57.104Z,102340.56
2023-05-13T12:33:02.154Z,102345.38
2023-05-13T12:35:16.058Z,102340.13
2023-05-13T12:37:27.529Z,102338.59
2023-05-13T12:39:32.677Z,102345.63
2023-05-13T12:41:39.178Z,102339.59
2023-05-13T12:43:45.280Z,102346.06
2023-05-13T12:45:55.183Z,102337.91
2023-05-13T12:48:03.654Z,102347.34
2023-05-13T12:50:10.542Z,102339.03
2023-05-13T12:52:19.134Z,102344.78
2023-05-13T12:54:25.966Z,102341.94
2023-05-13T12:56:31.253Z,102354.72
2023-05-13T12:58:36.013Z,102349.50
2023-05-13T13:00:41.786Z,102346.53
2023-05-13T13:02:49.075Z,102346.91
2023-05-13T13:04:56.746Z,102338.88
2023-05-13T13:07:01.708Z,102334.72
2023-05-13T13:09:07.796Z,102341.06
2023-05-13T13:11:15.104Z,102341.84
2023-05-13T13:13:20.017Z,102336.69
2023-05-13T13:15:25.470Z,102332.69
2023-05-13T13:17:30.770Z,102336.44
2023-05-13T13:19:35.692Z,102336.50
2023-05-13T13:21:43.265Z,102340.63
2023-05-13T13:23:48.255Z,102333.09
2023-05-13T13:25:53.143Z,102336.56
2023-05-13T13:27:58.112Z,102343.97
2023-05-13T13:30:03.125Z,102343.47
2023-05-13T13:32:09.099Z,102337.78
2023-05-13T13:34:14.733Z,102330.91
2023-05-13T13:36:25.706Z,102343.06
2023-05-13T13:38:33.190Z,102333.59
2023-05-13T13:40:38.811Z,102336.06
2023-05-13T13:42:45.259Z,102338.59
2023-05-13T13:44:50.206Z,102336.84
2023-05-13T13:46:55.419Z,102334.56
2023-05-13T13:49:02.138Z,102333.25
2023-05-13T13:51:09.025Z,102330.78
2023-05-13T13:53:14.936Z,102329.59
2023-05-13T13:55:22.816Z,102327.56
2023-05-13T13:57:27.837Z,102324.19
2023-05-13T13:59:33.108Z,102320.16
2023-05-13T14:01:40.289Z,102322.41
2023-05-13T14:03:45.451Z,102320.44
2023-05-13T14:05:50.355Z,102320.97
2023-05-13T14:07:56.142Z,102321.06
2023-05-13T14:10:01.613Z,102319.75
2023-05-13T14:12:09.655Z,102324.63
2023-05-13T14:14:15.480Z,102318.81
2023-05-13T14:16:20.347Z,102308.59
2023-05-13T14:18:25.892Z,102311.13
2023-05-13T14:20:31.552Z,102321.84
2023-05-13T14:22:36.631Z,102319.78
2023-05-13T14:26:47.041Z,102316.06
2023-05-13T14:28:55.196Z,102314.72
2023-05-13T14:31:00.246Z,102316.97
2023-05-13T14:33:05.426Z,102314.84
2023-05-13T14:35:12.150Z,102307.63
2023-05-13T14:37:17.578Z,102303.03
2023-05-13T14:39:22.620Z,102308.09
2023-05-13T14:41:29.462Z,102300.06
2023-05-13T14:43:34.503Z,102301.59
2023-05-13T14:45:42.140Z,102292.59
2023-05-13T14:47:47.566Z,102298.25
2023-05-13T14:49:52.666Z,102303.50
2023-05-13T14:51:57.608Z,102302.28
2023-05-13T14:54:02.555Z,102299.28
2023-05-13T14:56:08.194Z,102308.47
2023-05-13T14:58:14.186Z,102299.81
2023-05-13T15:00:20.284Z,102301.66
2023-05-13T15:02:28.654Z,102307.31
2023-05-13T15:04:33.743Z,102306.94
2023-05-13T15:06:40.384Z,102297.50
2023-05-13T15:08:45.426Z,102295.78
2023-05-13T15:10:50.469Z,102301.69
2023-05-13T15:12:55.289Z,102300.53
2023-05-13T15:15:02.609Z,102298.94
2023-05-13T15:17:12.176Z,102303.16
2023-05-13T15:19:19.707Z,102297.69
2023-05-13T15:21:24.949Z,102298.91
2023-05-13T15:23:30.111Z,102305.34
2023-05-13T15:25:35.153Z,102307.63
2023-05-13T15:27:40.046Z,102296.63
2023-05-13T15:29:45.506Z,102300.53
2023-05-13T15:31:52.991Z,102302.50
2023-05-13T15:33:58.509Z,102304.06
2023-05-13T15:36:06.105Z,102298.00
2023-05-13T15:38:11.210Z,102299.41
2023-05-13T15:40:20.088Z,102291.28
2023-05-13T15:42:25.297Z,102289.66
2023-05-13T15:44:30.304Z,102294.75
2023-05-13T15:46:36.064Z,102290.41
2023-05-13T15:48:44.141Z,102288.84
2023-05-13T15:50:49.147Z,102291.84
2023-05-13T15:52:57.486Z,102285.69
2023-05-13T15:55:02.447Z,102289.88
2023-05-13T15:57:07.720Z,102291.69
2023-05-13T15:59:12.666Z,102288.47
2023-05-13T16:01:19.003Z,102294.78
2023-05-13T16:03:23.919Z,102292.19
2023-05-13T16:05:31.771Z,102291.50
2023-05-13T16:07:36.814Z,102289.66
2023-05-13T16:09:45.369Z,102291.81
2023-05-13T16:11:50.433Z,102294.28
2023-05-13T16:13:55.359Z,102286.00
2023-05-13T16:16:00.298Z,102289.19
2023-05-13T16:18:05.187Z,102286.28
2023-05-13T16:20:11.945Z,102282.19
2023-05-13T16:22:33.868Z,102285.69
2023-05-13T16:24:38.893Z,102280.94
2023-05-13T16:26:46.652Z,102283.69
2023-05-13T16:28:53.110Z,102285.25
2023-05-13T16:30:58.728Z,102284.81
2023-05-13T16:33:03.901Z,102286.28
2023-05-13T16:35:11.788Z,102280.50
2023-05-13T16:37:16.826Z,102282.72
2023-05-13T16:39:27.855Z,102288.06
2023-05-13T16:41:35.615Z,102279.00
2023-05-13T16:43:43.877Z,102276.94
2023-05-13T16:45:48.920Z,102278.19
2023-05-13T16:47:54.282Z,102285.94
2023-05-13T16:50:00.482Z,102269.59
2023-05-13T16:52:05.687Z,102274.97
2023-05-13T16:54:10.780Z,102269.16
2023-05-13T16:56:15.807Z,102267.78
2023-05-13T16:58:21.233Z,102267.44
2023-05-13T17:00:31.293Z,102267.91
2023-05-13T17:02:38.575Z,102265.88
2023-05-13T17:04:44.037Z,102267.59
2023-05-13T17:06:49.222Z,102267.75
2023-05-13T17:08:54.193Z,102273.50
2023-05-13T17:11:02.033Z,102277.44
2023-05-13T17:13:07.051Z,102274.72
2023-05-13T17:15:12.616Z,102271.59
2023-05-13T17:17:20.404Z,102270.72
2023-05-13T17:19:26.117Z,102266.47
2023-05-13T17:21:31.347Z,102273.28
2023-05-13T17:23:36.803Z,102270.78
2023-05-13T17:25:41.920Z,102268.13
2023-05-13T17:27:46.831Z,102268.19
2023-05-13T17:29:53.946Z,102268.66
2023-05-13T17:31:59.310Z,102275.84
2023-05-13T17:34:07.175Z,102268.78
2023-05-13T17:36:12.339Z,102272.22
2023-05-13T17:38:21.139Z,102272.13
2023-05-13T17:40:26.932Z,102282.06
2023-05-13T17:42:33.289Z,102283.84
2023-05-13T17:44:38.299Z,102276.41
2023-05-13T17:46:43.954Z,102276.00
2023-05-13T17:48:49.400Z,102276.03
2023-05-13T17:50:57.286Z,102273.91
2023-05-13T17:53:03.734Z,102270.00
2023-05-13T17:55:10.068Z,102274.94
2023-05-13T17:57:16.056Z,102273.97
2023-05-13T17:59:21.101Z,102262.69
2023-05-13T18:01:25.986Z,102268.13
2023-05-13T18:03:30.961Z,102269.81
2023-05-13T18:05:36.277Z,102269.28
2023-05-13T18:07:43.974Z,102269.56
2023-05-13T18:09:49.994Z,102271.69
2023-05-13T18:11:57.795Z,102278.06
2023-05-13T18:14:03.041Z,102275.84
2023-05-13T18:16:09.462Z,102279.91
2023-05-13T18:18:16.372Z,102279.59
2023-05-13T18:20:24.791Z,102283.97
2023-05-13T18:22:30.081Z,102282.59
2023-05-13T18:24:40.001Z,102288.63
2023-05-13T18:26:45.339Z,102290.78
2023-05-13T18:28:50.434Z,102290.00
2023-05-13T18:30:55.488Z,102286.97
2023-05-13T18:33:00.401Z,102280.88
2023-05-13T18:35:05.940Z,102281.22
2023-05-13T18:37:10.731Z,102285.78
2023-05-13T18:39:15.866Z,102287.88
2023-05-13T18:41:24.473Z,102288.06
2023-05-13T18:43:30.815Z,102295.97
2023-05-13T18:45:35.783Z,102301.00
2023-05-13T18:47:41.243Z,102297.56
2023-05-13T18:49:46.251Z,102293.88
2023-05-13T18:51:51.274Z,102303.81
2023-05-13T18:53:56.574Z,102297.75
2023-05-13T18:56:01.594Z,102301.41
2023-05-13T18:58:09.226Z,102297.94
2023-05-13T19:00:15.309Z,102302.25
2023-05-13T19:02:20.645Z,102303.19
2023-05-13T19:04:28.914Z,102299.72
2023-05-13T19:06:34.375Z,102299.72
2023-05-13T19:08:43.469Z,102306.78
2023-05-13T19:10:49.966Z,102311.13
2023-05-13T19:12:55.426Z,102304.97
2023-05-13T19:15:03.237Z,102310.44
2023-05-13T19:17:08.813Z,102305.97
2023-05-13T19:19:14.099Z,102306.81
2023-05-13T19:21:23.448Z,102308.66
2023-05-13T19:23:30.013Z,102305.97
2023-05-13T19:25:35.486Z,102317.44
2023-05-13T19:27:43.958Z,102312.38
2023-05-13T19:29:49.320Z,102312.72
2023-05-13T19:31:56.888Z,102313.63
2023-05-13T19:34:02.907Z,102319.25
2023-05-13T19:36:08.305Z,102327.00
2023-05-13T19:38:14.373Z,102321.69
2023-05-13T19:40:19.598Z,102318.06
2023-05-13T19:42:26.610Z,102321.84
2023-05-13T19:44:33.283Z,102326.53
2023-05-13T19:46:38.258Z,102331.78
2023-05-13T19:48:46.371Z,102330.25
2023-05-13T19:50:53.570Z,102331.94
2023-05-13T19:52:59.010Z,102327.50
2023-05-13T19:55:04.642Z,102339.97
2023-05-13T19:57:09.975Z,102331.97
2023-05-13T19:59:15.355Z,102331.97
2023-05-13T20:01:20.661Z,102337.06
2023-05-13T20:03:26.755Z,102339.72
2023-05-13T20:05:34.759Z,102337.97
2023-05-13T20:07:40.079Z,102335.44
2023-05-13T20:09:45.385Z,102340.16
2023-05-13T20:11:50.235Z,102345.81
2023-05-13T20:13:55.295Z,102344.31
2023-05-13T20:16:00.307Z,102354.75
2023-05-13T20:18:05.480Z,102348.84
2023-05-13T20:20:12.008Z,102359.38
2023-05-13T20:22:22.755Z,102349.84
2023-05-13T20:24:27.723Z,102349.22
2023-05-13T20:26:35.110Z,102351.91
2023-05-13T20:28:40.119Z,102361.75
2023-05-13T20:30:45.781Z,102360.03
2023-05-13T20:32:51.235Z,102360.91
2023-05-13T20:34:56.256Z,102355.78
2023-05-13T20:37:01.753Z,102355.88
2023-05-13T20:39:09.871Z,102353.38
2023-05-13T20:41:15.329Z,102357.50
2023-05-13T20:43:20.390Z,102352.72
2023-05-13T20:45:26.741Z,102355.81
2023-05-13T20:47:31.767Z,102356.09
2023-05-13T20:49:38.750Z,102354.34
2023-05-13T20:51:44.204Z,102353.56
2023-05-13T20:53:49.526Z,102349.38
2023-05-13T20:55:57.210Z,102363.47
2023-05-13T20:58:02.044Z,102360.69
2023-05-13T21:00:07.890Z,102353.38
2023-05-13T21:02:12.911Z,102352.72
2023-05-13T21:04:22.138Z,102360.19
2023-05-13T21:06:30.242Z,102360.56
2023-05-13T21:08:37.281Z,102362.50
2023-05-13T21:10:42.050Z,102355.59
2023-05-13T21:12:49.753Z,102357.47
2023-05-13T21:14:54.786Z,102362.84
2023-05-13T21:17:03.226Z,102364.59
2023-05-13T21:19:08.415Z,102363.72
2023-05-13T21:21:13.791Z,102364.78
2023-05-13T21:23:20.536Z,102367.41
2023-05-13T21:25:29.358Z,102371.72
2023-05-13T21:27:34.697Z,102373.59
2023-05-13T21:29:42.504Z,102372.84
2023-05-13T21:31:50.616Z,102370.97
2023-05-13T21:33:56.170Z,102373.88
2023-05-13T21:36:01.264Z,102376.53
2023-05-13T21:38:12.030Z,102374.09
2023-05-13T21:40:21.601Z,102368.03
2023-05-13T21:42:27.295Z,102361.88
2023-05-13T21:44:32.209Z,102362.66
2023-05-13T21:46:39.753Z,102360.09
2023-05-13T21:48:47.027Z,102359.19
2023-05-13T21:50:54.846Z,102360.97
2023-05-13T21:52:59.892Z,102366.25
2023-05-13T21:55:05.047Z,102366.34
2023-05-13T21:57:11.367Z,102363.88
2023-05-13T21:59:16.399Z,102364.91
2023-05-13T22:01:23.175Z,102362.13
2023-05-13T22:03:31.418Z,102352.66
2023-05-13T22:05:42.382Z,102350.91
2023-05-13T22:07:51.298Z,102357.91
2023-05-13T22:09:56.360Z,102358.00
2023-05-13T22:12:01.337Z,102351.81
2023-05-13T22:14:06.413Z,102357.91
2023-05-13T22:16:12.222Z,102354.44
2023-05-13T22:18:20.153Z,102350.91
2023-05-13T22:20:28.673Z,102352.00
2023-05-13T22:22:33.755Z,102341.44
2023-05-13T22:24:38.522Z,102354.59
2023-05-13T22:26:44.351Z,102353.78
2023-05-13T22:28:49.413Z,102350.28
2023-05-13T22:30:56.068Z,102343.16
2023-05-13T22:33:01.092Z,102344.06
2023-05-13T22:35:06.330Z,102348.31
2023-05-13T22:37:14.222Z,102349.31
2023-05-13T22:39:19.482Z,102348.56
2023-05-13T22:41:26.562Z,102353.09
2023-05-13T22:43:31.598Z,102350.53
2023-05-13T22:45:36.837Z,102347.06
2023-05-13T22:47:42.023Z,102347.91
2023-05-13T22:49:47.023Z,102349.75
2023-05-13T22:51:52.383Z,102347.06
2023-05-13T22:53:59.913Z,102343.56
2023-05-13T22:56:05.890Z,102341.03
2023-05-13T22:58:11.004Z,102334.00
2023-05-13T23:00:17.612Z,102334.06
2023-05-13T23:02:23.828Z,102328.88
2023-05-13T23:04:30.231Z,102319.19
2023-05-13T23:06:35.332Z,102323.75
2023-05-13T23:08:42.770Z,102323.59
2023-05-13T23:10:50.524Z,102327.16
2023-05-13T23:12:55.983Z,102320.97
2023-05-13T23:15:01.245Z,102328.09
2023-05-13T23:17:06.317Z,102324.53
2023-05-13T23:19:11.624Z,102321.72
2023-05-13T23:21:16.901Z,102325.41
2023-05-13T23:23:25.226Z,102318.25
2023-05-13T23:25:30.251Z,102315.78
2023-05-13T23:27:38.051Z,102315.94
2023-05-13T23:29:43.095Z,102321.13
2023-05-13T23:31:49.381Z,102316.63
2023-05-13T23:33:57.339Z,102315.75
2023-05-13T23:36:02.358Z,102315.97
2023-05-13T23:38:07.310Z,102304.28
2023-05-13T23:40:13.961Z,102306.38
2023-05-13T23:42:19.603Z,102307.31
2023-05-13T23:44:27.110Z,102304.66
2023-05-13T23:46:32.327Z,102299.34
2023-05-13T23:48:40.637Z,102296.75
2023-05-13T23:50:45.680Z,102297.78
2023-05-13T23:52:51.503Z,102289.91
2023-05-13T23:54:56.696Z,102283.94
2023-05-13T23:57:01.600Z,102290.91
2023-05-13T23:59:06.664Z,102284.72
